19:53
Airports
History
Links
Donate
Help keep this website running!
PayPal
Bitcoin
This page is community maintained. The information is intended for PC simulator navigation or reference.
Always use approved charts for navigation.
MN84
Bachand
Bachand (MN84)
Brooks, Minnesota, United States (56715)
4
Lat/Lng:47° 48' 49.86" N / 95° 53' 31.1" W
47.81385 / -95.891973
Elevation:1100'ft / 335mMSL
ID / ICAO:MN84
Runways:1
Longest:09-27
Grass 612m / 2,006ft
Nearby Weather19:35 GMT 2017-12-12
Nearby weather at KFSE, Fosston Muni located 16.2 nautical miles from MN84
Altimeter: 29.83
Visibility: 10.0 statute miles
Wind: 11 knots (from 200°)
Temp: -4°c / 25°f
Humidity: 85.9%

METAR: KFSE 121935Z AUTO 20011KT 10SM BKN007 M04/M06 A2983 RMK AO2

(Powered by phpweather)
Nearby VORs <50NM
Nearby NDBs
Runway 09 / 27
Dimensions:611.5 x 12.2m 2006' x 40'ft
Surface:Grass
Runway 09 [A]Runway 27 [B]
Heading:095°TH 275°TH
Lat:
Lng:
47° 48' 50.72"N
95° 53' 45.75"W
47° 48' 49"N
95° 53' 16.45"W
User Notes and Comments
47° 48' 49.86" N / 95° 53' 31.1" W
Distance To
Airport ID:
Nearby Airports
(R) Oak Lake Air Strip 11.0 NM
MN42 SSW 193°
(R) Hemmingsen Private 16.2 NM
76MN SSW 201°
(U) Fosston Muni 16.2 NM
KFSE ( WX ) SSE 160°
4 Red Lake Falls Muni 17.0 NM
D81 W 272°
(R) Mathis 17.3 NM
MY42 ENE 78°
4 Swanson - Private 19.8 NM
MY17 NNE 15°
(U) Thief River Falls Rgnl 22.1 NM
KTVF ( WX ) NW 322°
VFR Chart
Flight Planning at SkyVector.com